DECARUN KOSZALIN 5 KM

Wydarzenie/ Event:
Organizator/ Organizer:
Decathlon Koszalin
Data/ Date:
2017-08-15
Miejsce/ Place:
Koszalin
Dystans/ Distance:
5 km
Zgłoszonych/ Registered:
169
Wystartowało/ Started:
156
Nie ukończyło/ Not finished:
0
Ukończyło/ Finished:
156
Na trasie/ On track:
0

Klasyfikacja/ Classiffication: Wszyscy

Wyniki nieoficjalne !!!
Pełne wyniki/ Full Results : PDF | CSV
Wyniki uproszczone/ Simple results : PDF | PDF2 | CSV
 
Klasyfikacje w punktach pomiarowych/ Classification for time points: 2.5km | Meta
Klasyfikacje wg kategorii/ Classification by category: Wszyscy | K-Open | M-Open | K-14 | M-14 | K-18 | M-18 | K-40 | M-40 | K-50 | M-50 | K-60+ | M-60+

Msc/ RnkZawodnik/ NameNumer/ BibKlub/ TeamMiejscowość/ CityKraj/ CountryKategoria/ CategoryMkat/ CatRnk2.5kmCzas
netto
5km
Różn/ GapTempo
min/km
Tempo
km/h
      
1GAWRON Piotr 20BOROWY MŁYNPOLSKAM-18100:08:5700:17:46.80 3:3316.9
2RYBACZEK Sebastian 252JW 1223-FORMA ROSNOWOROSNOWOPOLSKAM-18200:08:5700:18:03.70+00:00:173:3616.6
3HOŁUB Kamil 90MLUKS TRZEBIATÓWTRZEBIATÓWPOLSKAM-18300:09:0600:18:10.40+00:00:243:3816.5
4SZEWCZUK Paweł 294ROSNOWOPOLSKAM-18400:09:1100:18:29.40+00:00:433:4216.2
5ŻMUDA Tomasz 343CW FANZA KOŁOBRZEGSARBIA KOŁOBRZEGPOLSKAM-40100:09:1900:18:45.00+00:00:583:4516
6KASZUBIAK Klaudiusz 118KOSZALINPOLSKAM-18500:10:0500:19:38.40+00:01:513:5515.3
7SZAMREJ Wojciech 292KOSZALINPOLSKAM-50100:09:4200:19:44.45+00:01:583:5715.2
8ZUKAL Piotr 341KOSZALINPOLSKAM-40200:09:5700:19:52.05+00:02:053:5815.1
9BARANOWSKI Piotr 7ROZBIEGANY KOSZALINKOSZALINPOLSKAM-40300:09:4200:20:01.05+00:02:144:0015
10MATUSZEWSKI Karol 177KS WILKI KOSZALINKOSZALINPOLSKAM-18600:10:0700:20:01.20+00:02:144:0015
11SZULC Arek 299KOSZALINPOLSKAM-40400:10:2700:20:34.35+00:02:474:0614.6
12FRONTCZAK Izabela 68SZCZECINEKPOLSKAK-18100:10:1300:20:49.75+00:03:034:1014.4
13HUBERT Łukasz 91KOSZALINPOLSKAM-18700:10:1700:20:59.00+00:03:124:1114.3
14BIEŃKOWSKI Tomasz 17NIEKŁONICEPOLSKAM-18800:10:1500:21:15.20+00:03:284:1514.1
15OLCZAK Krzysztof 204KRZYSZTOF OLCZAKSIANÓWPOLSKAM-18900:10:4300:21:21.20+00:03:344:1614.1
16WEBER Paweł 172KOSZALINPOLSKAM-181000:10:3800:21:31.80+00:03:454:1813.9
17IWANIEC Dariusz 92TKKF KOSZALINSIERAKOWOPOLSKAM-40500:10:5200:21:35.40+00:03:484:1913.9
18PASIEKA Agnieszka 212K.B. SPRINT ŚWIDWINŚWIDWINPOLSKAK-18200:10:3400:21:35.85+00:03:494:1913.9
19MICERSKI Tomasz 181TKKF KOSZALINKOSZALINPOLSKAM-40600:10:5900:22:13.90+00:04:264:2613.5
20WILK Bartłomiej 326MŚCICEPOLSKAM-181100:11:1600:22:25.30+00:04:394:2913.4
21KRÓL Michał 146KOSZALINPOLSKAM-181200:11:0400:22:38.35+00:04:524:3113.2
22RUTKOWSKI Ryszard 251RUTKOWSKI TEAMSIANÓWPOLSKAM-50200:11:0600:22:41.20+00:04:544:3213.2
23JASIENIECKI Piotr 105KOSZALINPOLSKAM-40700:11:2900:22:45.35+00:04:594:3313.2
24WICHER Krzysztof 321ADWOKATURAKOSZALINPOLSKAM-181300:11:4100:22:51.10+00:05:044:3413.1
25JAROSZ Konrad 102GIMNAZJUM NR 9 KOSZALINKOSZALINPOLSKAM-14100:10:5800:22:52.80+00:05:064:3413.1
26RÓG Michał 248JW1223STARE BIELICEPOLSKAM-181400:11:5500:23:01.45+00:05:144:3613
27SKOWYRSKI Janusz 270BIESIEKIERZPOLSKAM-50300:11:2400:23:16.35+00:05:304:3912.9
28STRZYŻ Łukasz 286ARTE-ITSTARE BIELICEPOLSKAM-181500:11:3000:23:29.10+00:05:424:4112.8
29GARNCAREK Bolesław 71KS WILKI KOSZALINŚWIESZYNOPOLSKAM-181600:11:4000:23:35.60+00:05:494:4312.7
30BASSEL Marcin 11KOSZALINPOLSKAM-181700:11:3600:23:36.05+00:05:494:4312.7
31WOŁOWIEC Przemek 334KOSZALINPOLSKAM-181800:11:3900:23:42.70+00:05:564:4412.6
32KOPCZEWSKI Dariusz 136KOSZALINPOLSKAM-50400:11:3500:23:43.90+00:05:574:4412.6
33SAMOIŁ-KOWALSKA Irena 255TKKF KOSZALINBOBOLICEPOLSKAK-40100:11:3200:23:44.55+00:05:584:4512.6
34MEJER Aleksandra 180ROSNOWOPOLSKAK-14100:12:3000:23:46.00+00:05:594:4512.6
35MASTALERZ Konrad 176DECATHLON KOSZALINKOSZALINPOLSKAM-181900:11:2500:23:56.10+00:06:094:4712.5
36ANTKOWIAK Sebastian 3KOSZALINPOLSKAM-40800:11:4600:24:00.45+00:06:144:4812.5
37KULCZYK Katarzyna 157KB BRYZA POSTOMINOSŁAWSKOPOLSKAK-18300:12:2100:24:03.55+00:06:164:4812.5
38RUDZIŃSKI Bronisław 249KOSZALINPOLSKAM-60+100:11:5200:24:06.75+00:06:204:4912.4
39WERSOCKI Artur 319KOSZALINPOLSKAM-40900:12:0700:24:19.00+00:06:324:5112.3
40BLICHARZ Monika 18KOSZALINPOLSKAK-18400:12:0400:24:31.80+00:06:454:5412.2
41ADAMEF BIKE Ali 2KOSZALINPOLSKAK-18500:12:1700:24:40.25+00:06:534:5612.2
42SOLNICA Waldemar 275KOSZALINKOSZALINPOLSKAM-182000:11:4800:24:47.65+00:07:014:5712.1
43SZNYTER Hubert 349POLANÓWM-14200:11:2700:24:49.60+00:07:024:5712.1
44GAWIECKI Piotr 74ROZBIEGANY KOSZALINKOSZALINPOLSKAM-401000:12:0300:24:53.70+00:07:074:5812
45ANTOSIEWICZ Rafał 4KOSZALINPOLSKAM-182100:13:1000:24:56.45+00:07:104:5912
46FIRSIOF Konrad 65ŚWIDWINPOLSKAM-14300:12:3100:25:00.40+00:07:135:0012
47ŻMUDA Monika 344CW FANZA KOŁOBRZEGSARBIA KOŁOBRZEGPOLSKAK-40200:12:5000:25:06.45+00:07:195:0112
48NENKO Viktoria 200BOBOLICEUKRAINAK-18600:12:3300:25:11.75+00:07:245:0211.9
49GOLEC Anna 78KOSZALINPOLSKAK-40300:12:1400:25:15.30+00:07:285:0311.9
50BUCZEK Karol 36KOSZALINPOLSKAM-182200:13:1000:25:19.75+00:07:335:0411.8
51BOGACKA Lucyna 23TKKF KOSZALINKOSZALINPOLSKAK-50100:12:3700:25:20.65+00:07:345:0411.8
52BOGACKI Tomasz 24TKKF KOSZALINKOSZALINPOLSKAM-50500:12:3700:25:21.40+00:07:355:0411.8
53PANCERZYŃSKI Łukasz 208KOSZALINPOLSKAM-182300:12:3700:25:25.15+00:07:385:0511.8
54KUŁAKOWSKI Dawid 158TKKF KOSZALINKOSZALINPOLSKAM-401100:12:3700:25:25.30+00:07:395:0511.8
55MRUGALSKI Stanisław 198MIASTKOPOLSKAM-50600:12:4900:25:26.95+00:07:405:0511.8
56MRUGALSKA Magdalena 196JW1223KOSZALINPOLSKAK-18700:12:3300:25:30.90+00:07:435:0611.8
57SZNYTER Sabina 297DECATHLON KOSZALINPOLANÓWPOLSKAK-18800:12:3800:25:34.10+00:07:475:0611.7
58KONKEL Joanna 133MKS 'ŚWIĘC SŁAWNO'SŁAWNOPOLSKAK-50200:12:4800:25:36.30+00:07:495:0711.7
59KONKEL Łukasz 134KOSZALINPOLSKAM-182400:12:3000:25:44.00+00:07:575:0811.7
60SŁOMSKI Zenon 272KORZYBSKIE REKINYKORZYBIEPOLSKAM-60+200:12:3700:25:50.05+00:08:035:1011.6
61MARZEC Łukasz 175KOSZALINPOLSKAM-182500:12:3300:25:50.70+00:08:045:1011.6
62BRZOZOWSKA Barbara 34TYCHOWOPOLSKAK-18900:13:0000:25:53.55+00:08:075:1011.6
63MALINOWSKA-BURDA Aleksandra 169KOSZALINPOLSKAK-181000:13:0400:25:53.90+00:08:075:1011.6
64BURDA Bartosz 40KOSZALINPOLSKAM-182600:13:0300:25:54.35+00:08:075:1011.6
65OLSZEWSKI Przemysław 359KOSALINPOLSKAM-182700:12:3800:25:56.15+00:08:095:1111.6
66KOZAK Monika 83KOSZALINPOLSKAK-181100:12:2200:25:59.90+00:08:135:1211.5
67SERWIS ROWEROWY Adamef Bike 257KOSZALINPOLSKAM-182800:12:3100:26:06.45+00:08:205:1311.5
68MARCISZEWICZ Marcin 171DECATHLON SŁUPSKSŁUPSKPOLSKAM-182900:12:2000:26:12.60+00:08:255:1411.5
69KOMAR Agnieszka 132SPOKO SŁAWNOSŁAWNOPOLSKAK-181200:13:0400:26:15.60+00:08:295:1511.4
70PIASK Filip 217KOSZALINPOLSKAM-183000:13:0600:26:19.05+00:08:325:1511.4
71RADOMSKI Michał 240KOSZALINPOLSKAM-183100:12:3100:26:21.60+00:08:355:1611.4
72BUCZEK Karolina 35KOSALINPOLSKAK-181300:13:1100:26:23.15+00:08:365:1611.4
73ROBAKOWSKA Żaneta 245KOSZALINPOLSKAK-181400:13:0100:26:27.40+00:08:405:1711.3
74JUSZCZAK Karolina 112CZAPLINEKPOLSKAK-181500:13:0400:26:35.50+00:08:485:1911.3
75DWULIT Dominik 60KORZYBSKIE REKINYKĘPICEPOLSKAM-183200:13:3200:26:36.05+00:08:495:1911.3
76CZEPIEL Iwona 48KORZYBSKIE REKINYKĘPICEPOLSKAK-181600:13:3500:26:36.70+00:08:505:1911.3
77CZEPIEL Łukasz 49KORZYBSKIE REKINYKĘPICEPOLSKAM-183300:13:3400:26:38.25+00:08:515:1911.3
78MICHALAK Ania 182KOSZALINPOLSKAK-181700:13:1100:26:39.55+00:08:525:1911.3
79HAŁKA Ola 89KOSZALINPOLSKAK-181800:13:1000:26:42.80+00:08:565:2011.2
80PIETRZAK Mariola 223BABECZKI KOSZALINKOSZALINPOLSKAK-50300:13:0100:26:45.15+00:08:585:2111.2
81STRUKIEL Daniel 284KOSZALINPOLSKAM-183400:13:1700:27:01.55+00:09:155:2411.1
82KILJAN Sylwia 122KOSZALINPOLSKAK-181900:13:1600:27:05.00+00:09:185:2511.1
83BUTOWICZ Adam 354SZCZECINEKPOLSKAM-50700:13:1200:27:16.10+00:09:295:2711
84CHUDZIK Łukasz 355STARE BIELICEPOLSKAM-183500:13:3600:27:16.60+00:09:295:2711
85CHUDZIK Zbigniew 357TKKF KOSZALINSTARE BIELICEPOLSKAM-50800:13:3800:27:17.65+00:09:315:2711
86BIAZIK Marta 14KOSZALINPOLSKAK-182000:13:2800:27:20.35+00:09:335:2811
87KOWALSKI Marek 140KOSZALINPOLSKAM-401200:13:3000:27:25.15+00:09:385:2910.9
88MARCZAK Małgorzata 173AMATORŻELKOWOPOLSKAK-50400:13:0200:27:29.55+00:09:435:3010.9
89KACZMAREK Agnieszka 114KOSZALINPOLSKAK-40400:13:3200:27:36.90+00:09:495:3110.9
90KOMOROWSKA Beata 350K-182100:13:4100:27:38.80+00:09:525:3110.8
91SZYMAŃSKI Marcin 302TEAM BIEGOWY SZCZECINEKSZCZECINEKPOLSKAM-183600:13:3600:27:44.65+00:09:585:3310.8
92PIŁAT Wiesław 226KOSZALINKOSZALINPOLSKAM-401300:13:4100:27:50.40+00:10:035:3410.8
93FALANA Robert 61TYCHOWOPOLSKAM-401400:14:2100:27:52.70+00:10:065:3410.8
94JUREWICZ Aleksandra 111KOSZALINPOLSKAK-182200:13:3800:27:56.55+00:10:105:3510.7
95GAWIECKA Mariola 73BABECZKI KOSZALINKOSZALINPOLSKAK-40500:13:4900:28:01.10+00:10:145:3610.7
96GAWROŃSKI Paweł 76OGIEŃ W SZOPIEKOSZALINPOLSKAM-183700:14:0000:28:16.30+00:10:295:3910.6
97JAROSZEWICZ Ania 103OGIEŃ W SZOPIENIEKŁONICEPOLSKAK-182300:14:0000:28:16.40+00:10:295:3910.6
98NOWAK Piotr 358KOSZALINPOLSKAM-183800:13:1400:28:18.95+00:10:325:3910.6
99BRYŁA Katarzyna 32KOSZALINPOLSKAK-40600:13:5000:28:28.10+00:10:415:4110.5
100BONISŁAWSKA Małgosia 25ZOSIA&ZUZIASŁAWNOPOLSKAK-182400:14:0900:28:44.00+00:10:575:4410.4
101KISIEL Agnieszka 124OKONEKPOLSKAK-182500:14:2600:28:50.30+00:11:045:4610.4
102SZORDYKOWSKI Adam 298ZABIEGANINOCĄOKONEKPOLSKAM-183900:14:2600:28:50.35+00:11:035:4610.4
103MALINOWSKA Agnieszka 9KOSZALINPOLSKAK-182600:14:3300:28:51.85+00:11:055:4610.4
104KULCZYCKA Weronika 155KS WILKI KOSZALINKOSZALINPOLSKAK-182700:14:0400:28:55.25+00:11:085:4710.4
105KOT Aleksandra 139OKONEKPOLSKAK-182800:14:2600:28:55.50+00:11:085:4710.4
106KISIEL Marcin 123OKONEKPOLSKAM-184000:14:2700:28:55.85+00:11:095:4710.4
107KOŁTUN Łukasz 131REZERWOWE PSYSŁUPSKPOLSKAM-184100:14:0400:28:57.65+00:11:115:4710.4
108BORSUK Dorota 30KOSZALINPOLSKAK-40700:14:2300:29:10.55+00:11:245:5010.3
109PRADUŃ Michał 232KOSZALINPOLSKAM-184200:14:2300:29:16.50+00:11:305:5110.2
110OSIŃSKI Przemysław 207KOSZALINPOLSKAM-184300:13:4000:29:20.15+00:11:335:5210.2
111BORKOWSKI Radosław 29TOMASZÓW MAZOWIECKIPOLSKAM-401500:14:3600:29:22.85+00:11:365:5210.2
112JABŁOŃSKI Franciszek 94RATAJKIPOLSKAM-14400:14:3500:29:25.65+00:11:385:5310.2
113DĄBROWSKA Joanna 53SŁAWNOPOLSKAK-40800:14:1000:29:31.15+00:11:445:5410.2
114NIEWIADOWSKI Robert 201ARTE-ITSTARE BIELICEPOLSKAM-184400:14:0400:29:36.50+00:11:505:5510.1
115SIKORSKA Grażyna 264ROSNOWOPOLSKAK-50500:14:3800:29:44.75+00:11:585:5710.1
116STASZYŃSKA Marianna 281BTC,,ORZEŁ''BIAŁOGARDPOLSKAK-60+100:14:2100:29:45.90+00:11:595:5710.1
117PETRECHENKO Natalia 256TKKF KOSZALINBOBOLICEPOLSKAK-182900:14:1600:29:47.55+00:12:015:5710.1
118BORKOWSKA Natalia 27MKS TOMASZÓW MAZOWIECKITOMASZÓW MAZOWIECKIPOLSKAK-14200:13:3200:29:56.60+00:12:095:5910
119DOMAŃSKI Krzysztof 56KOŁOBRZEGPOLSKAM-14500:15:0100:29:58.80+00:12:125:5910
120REGENT Katarzyna 244KOSZALINPOLSKAK-183000:14:3900:30:01.80+00:12:156:0010
121KAROLCZUK Emilia 117KOSINPOLSKAK-183100:15:1100:30:07.10+00:12:206:0110
122CHWIAŁKOWSKI Cyprian 45MACHLINYPOLSKAM-184500:15:1100:30:07.50+00:12:216:0110
123PERLIKOWSKA Joanna 215WŁ SŁUPSKSŁUPSKPOLSKAK-40900:15:2000:30:07.75+00:12:216:0110
124KOROL Elżbieta 137BABECZKI KOSZALINKOSZALINPOLSKAK-401000:15:1200:30:08.30+00:12:216:0110
125ZAKONEK Anna 337DECATHLON KOSZALINKOSZALINPOLSKAK-183200:14:3900:30:08.50+00:12:216:0110
126KURCZ Barbara 159BABECZKI KOSZALINKOSZALINPOLSKAK-401100:15:1200:30:11.40+00:12:246:029.9
127TYBORA Joanna 315KOSZALINPOLSKAK-183300:14:3400:30:13.40+00:12:266:029.9
128GAWLIK Artur 75BIEGNIJMY.PLKOSZALINPOLSKAM-184600:15:0800:30:31.55+00:12:446:069.8
129SADOSKA Mirosława 254SIANÓWPOLSKAK-183400:15:0400:30:52.70+00:13:056:109.7
130WYSOCKI Krystian 336DOMASŁAWICEPOLSKAM-184700:15:0500:30:53.05+00:13:076:109.7
131PROTASEWICZ Renata 233SŁAWNOSŁAWNOPOLSKAK-183500:14:5100:30:54.20+00:13:086:119.7
132GRZYWAŁA Angelika 333KOSZALINPOLSKAK-401200:15:1600:30:55.60+00:13:096:119.7
133RULEWICZ Anna 329DRAWSKO POMORSKIEPOLSKAK-183600:15:1400:30:56.50+00:13:096:119.7
134MIKLASIŃSKA-KAMELSKA Monika 189OLSZEWSKI I SYNOWIESŁAWNOPOLSKAK-183700:15:1900:31:07.05+00:13:206:139.6
135PIETRZYCKI Adrian 224KOSZALINPOLSKAM-401600:15:4300:31:11.20+00:13:246:149.6
136STEFANOWICZ Jola 282-ROSNOWOPOLSKAK-183800:15:4300:31:11.25+00:13:246:149.6
137JAKUBOWSKA Anna 96KOSZALINPOLSKAK-183900:15:5300:31:53.30+00:14:066:229.4
138STAŃCZYK Franciszek 279NIEZRZESZONYKOSZALINPOLSKAM-60+300:15:5800:31:58.15+00:14:116:239.4
139JASIUCHNA Aleksandra 106PIECZARKOWE ŁAPKIŚWINOUJŚCIEPOLSKAK-184000:15:0600:31:58.45+00:14:116:239.4
140KMITA Gabriela 129DARŁOWOPOLSKAK-184100:15:2800:32:11.35+00:14:256:269.3
141KLAUDIA Okupska 125DECATHLON KOSZALINKOSZALINPOLSKAK-184200:14:5000:32:13.15+00:14:266:269.3
142ZUKAL Aleksandra 340KOSZALINPOLSKAK-401300:15:5300:32:27.35+00:14:406:299.2
143BATYŃSKA Magdalena 12SIANÓWPOLSKAK-184300:15:4800:32:29.55+00:14:426:299.2
144RADOMSKA Asiek 238CZARNEPOLSKAK-184400:15:2700:32:42.05+00:14:556:329.2
145DOMALEWSKA Dominika 54KOSZALINPOLSKAK-184500:15:2500:32:49.20+00:15:026:339.1
146FALANA Monika 62TYCHOWOPOLSKAK-184600:16:1600:32:53.95+00:15:076:349.1
147BAGIŃSKA Agnieszka 5KOSZALINPOLSKAK-184700:15:5400:33:12.45+00:15:256:389
148SETNIK Piotr 259DECATHLON SŁUPSKSŁUPSKPOLSKAM-14600:16:3900:34:42.50+00:16:556:568.6
149SETNIK Monika 258DECATHLON SŁUPSKSŁUPSKPOLSKAK-401400:16:4000:34:44.10+00:16:576:568.6
150STANKIEWICZ Anna 278KRETOMINOPOLSKAK-184800:17:3400:34:45.70+00:16:596:578.6
151CHMIELOWICZ Ewa 41KOSZALINPOLSKAK-184900:17:3300:34:54.45+00:17:076:588.6
152ŚLĘZAK Rafał 304CASTORAMABYDGOSZCZPOLSKAM-401700:17:2600:35:26.30+00:17:407:058.5
153TRACZ Jadwiga 311CASTORAMANOSOWOPOLSKAK-185000:17:2600:35:26.55+00:17:407:058.5
154GÓRSKA Dorota 81KOSZALINPOLSKAK-50600:17:4600:36:53.00+00:19:067:228.1
155JARZĘBSKA Ewelina 104MŚCICEPOLSKAK-185100:17:3100:37:16.70+00:19:297:278.1
156BARTNIK Marian 342TKKF KOSZALINKOSZALINPOLSKAM-60+400:19:3300:40:53.55+00:23:068:107.3
Znaleziono 156 wynik(ów)